createdAt,value
2023-08-06T00:00:40.612Z,0.70
2023-08-06T00:03:16.127Z,0.65
2023-08-06T00:06:03.217Z,0.40
2023-08-06T00:08:31.793Z,0.50
2023-08-06T00:11:01.713Z,0.70
2023-08-06T00:13:30.280Z,0.57
2023-08-06T00:16:13.011Z,0.50
2023-08-06T00:18:42.088Z,0.57
2023-08-06T00:21:14.524Z,0.30
2023-08-06T00:23:48.716Z,0.50
2023-08-06T00:26:21.020Z,0.60
2023-08-06T00:28:49.571Z,0.50
2023-08-06T00:31:18.159Z,0.50
2023-08-06T00:33:58.730Z,0.40
2023-08-06T00:36:27.271Z,0.50
2023-08-06T00:38:56.866Z,0.37
2023-08-06T00:41:26.909Z,0.30
2023-08-06T00:43:55.525Z,0.40
2023-08-06T00:46:24.318Z,0.30
2023-08-06T00:48:54.077Z,0.40
2023-08-06T00:51:24.244Z,0.40
2023-08-06T00:53:54.533Z,0.40
2023-08-06T00:56:23.124Z,0.30
2023-08-06T00:58:55.988Z,0.50
2023-08-06T01:01:24.603Z,0.47
2023-08-06T01:03:53.220Z,0.30
2023-08-06T01:06:27.247Z,0.40
2023-08-06T01:09:00.837Z,0.30
2023-08-06T01:11:40.492Z,0.38
2023-08-06T01:14:25.776Z,0.47
2023-08-06T01:16:55.487Z,0.43
2023-08-06T01:19:24.418Z,0.52
2023-08-06T01:21:54.574Z,0.85
2023-08-06T01:24:23.586Z,0.55
2023-08-06T01:27:04.569Z,0.40
2023-08-06T01:29:37.459Z,0.52
2023-08-06T01:32:12.000Z,0.40
2023-08-06T01:34:43.745Z,0.20
2023-08-06T01:37:14.521Z,0.32
2023-08-06T01:39:45.023Z,0.40
2023-08-06T01:42:15.850Z,0.40
2023-08-06T01:44:44.405Z,0.47
2023-08-06T01:47:13.631Z,0.50
2023-08-06T01:49:42.154Z,0.38
2023-08-06T01:52:17.949Z,0.57
2023-08-06T01:54:52.535Z,0.40
2023-08-06T01:57:21.082Z,0.60
2023-08-06T01:59:49.649Z,0.40
2023-08-06T02:02:18.197Z,0.52
2023-08-06T02:04:46.750Z,0.30
2023-08-06T02:07:15.296Z,0.50
2023-08-06T02:09:51.346Z,0.45
2023-08-06T02:12:19.917Z,0.40
2023-08-06T02:14:48.432Z,0.67
2023-08-06T02:17:22.201Z,0.50
2023-08-06T02:19:50.807Z,0.50
2023-08-06T02:22:19.326Z,0.50
2023-08-06T02:24:48.089Z,0.40
2023-08-06T02:27:20.857Z,0.45
2023-08-06T02:29:49.528Z,0.30
2023-08-06T02:32:18.113Z,0.40
2023-08-06T02:34:49.766Z,0.32
2023-08-06T02:37:18.303Z,0.38
2023-08-06T02:39:46.853Z,0.40
2023-08-06T02:42:19.743Z,0.30
2023-08-06T02:44:48.372Z,0.50
2023-08-06T02:47:16.907Z,0.30
2023-08-06T02:49:48.688Z,0.50
2023-08-06T02:52:17.265Z,0.30
2023-08-06T02:54:45.869Z,0.52
2023-08-06T02:57:24.958Z,0.35
2023-08-06T03:00:02.439Z,0.30
2023-08-06T03:02:43.308Z,0.28
2023-08-06T03:05:19.293Z,0.50
2023-08-06T03:07:50.907Z,0.77
2023-08-06T03:10:22.458Z,0.30
2023-08-06T03:12:55.546Z,0.70
2023-08-06T03:15:24.084Z,0.30
2023-08-06T03:17:58.985Z,0.40
2023-08-06T03:20:28.458Z,0.40
2023-08-06T03:22:56.978Z,0.22
2023-08-06T03:25:25.490Z,0.30
2023-08-06T03:27:55.372Z,0.30
2023-08-06T03:30:23.916Z,0.30
2023-08-06T03:32:58.666Z,0.30
2023-08-06T03:35:27.285Z,0.50
2023-08-06T03:37:55.880Z,0.40
2023-08-06T03:40:27.603Z,0.40
2023-08-06T03:42:57.477Z,0.60
2023-08-06T03:45:29.153Z,0.20
2023-08-06T03:48:03.833Z,0.52
2023-08-06T03:50:35.241Z,0.50
2023-08-06T03:53:09.407Z,0.70
2023-08-06T03:55:40.948Z,0.35
2023-08-06T03:58:18.386Z,0.85
2023-08-06T04:01:01.915Z,0.80
2023-08-06T04:03:33.389Z,0.63
2023-08-06T04:06:02.196Z,0.28
2023-08-06T04:08:30.776Z,0.55
2023-08-06T04:11:02.060Z,0.60
2023-08-06T04:13:40.468Z,0.45
2023-08-06T04:16:09.057Z,0.40
2023-08-06T04:18:40.476Z,0.50
2023-08-06T04:21:11.197Z,0.40
2023-08-06T04:23:39.861Z,0.30
2023-08-06T04:26:16.010Z,0.20
2023-08-06T04:28:46.079Z,0.30
2023-08-06T04:31:14.696Z,0.32
2023-08-06T04:33:43.305Z,0.30
2023-08-06T04:36:11.831Z,0.20
2023-08-06T04:38:42.695Z,0.30
2023-08-06T04:41:11.287Z,0.20
2023-08-06T04:43:42.990Z,0.40
2023-08-06T04:46:12.983Z,0.20
2023-08-06T04:48:46.719Z,0.30
2023-08-06T04:51:15.379Z,0.30
2023-08-06T04:53:43.893Z,0.20
2023-08-06T04:56:17.727Z,0.20
2023-08-06T04:58:46.329Z,0.30
2023-08-06T05:01:16.325Z,0.30
2023-08-06T05:03:44.898Z,0.30
2023-08-06T05:06:16.566Z,0.30
2023-08-06T05:08:45.141Z,0.30
2023-08-06T05:11:13.749Z,0.40
2023-08-06T05:13:47.881Z,0.40
2023-08-06T05:16:17.916Z,0.30
2023-08-06T05:18:46.598Z,0.30
2023-08-06T05:21:15.152Z,0.30
2023-08-06T05:23:46.641Z,0.30
2023-08-06T05:26:19.693Z,0.30
2023-08-06T05:28:48.265Z,0.73
2023-08-06T05:31:20.525Z,0.50
2023-08-06T05:33:49.095Z,0.80
2023-08-06T05:36:18.903Z,0.60
2023-08-06T05:38:47.593Z,0.38
2023-08-06T05:41:16.194Z,0.50
2023-08-06T05:43:44.759Z,0.52
2023-08-06T05:46:17.784Z,0.57
2023-08-06T05:48:46.356Z,0.47
2023-08-06T05:51:17.917Z,0.35
2023-08-06T05:53:50.497Z,0.70
2023-08-06T05:56:25.040Z,0.60
2023-08-06T05:58:56.692Z,0.50
2023-08-06T06:01:26.895Z,0.50
2023-08-06T06:04:01.416Z,0.30
2023-08-06T06:06:29.940Z,0.70
2023-08-06T06:09:01.547Z,0.20
2023-08-06T06:11:30.090Z,0.60
2023-08-06T06:14:10.786Z,0.65
2023-08-06T06:16:43.172Z,0.70
2023-08-06T06:19:14.832Z,0.70
2023-08-06T06:21:48.649Z,0.50
2023-08-06T06:24:20.189Z,0.30
2023-08-06T06:26:48.713Z,0.63
2023-08-06T06:29:20.234Z,0.55
2023-08-06T06:31:56.525Z,0.50
2023-08-06T06:34:28.402Z,0.22
2023-08-06T06:37:03.197Z,0.60
2023-08-06T06:39:37.718Z,0.90
2023-08-06T06:42:07.028Z,0.73
2023-08-06T06:44:35.561Z,0.60
2023-08-06T06:47:05.948Z,0.70
2023-08-06T06:49:40.263Z,0.90
2023-08-06T06:52:16.511Z,0.70
2023-08-06T06:54:48.097Z,0.50
2023-08-06T06:57:24.126Z,0.80
2023-08-06T06:59:58.307Z,0.70
2023-08-06T07:02:28.203Z,0.65
2023-08-06T07:04:59.576Z,0.60
2023-08-06T07:07:31.216Z,0.50
2023-08-06T07:10:06.883Z,0.45
2023-08-06T07:12:38.770Z,0.77
2023-08-06T07:15:08.608Z,0.40
2023-08-06T07:17:46.112Z,0.55
2023-08-06T07:20:14.690Z,0.70
2023-08-06T07:22:43.249Z,0.52
2023-08-06T07:25:11.790Z,0.22
2023-08-06T07:27:40.538Z,0.50
2023-08-06T07:30:09.989Z,0.60
2023-08-06T07:32:39.892Z,0.40
2023-08-06T07:35:13.722Z,0.50
2023-08-06T07:37:50.648Z,0.45
2023-08-06T07:40:20.239Z,0.30
2023-08-06T07:42:51.879Z,0.50
2023-08-06T07:45:20.657Z,0.50
2023-08-06T07:47:56.549Z,0.50
2023-08-06T07:50:25.118Z,0.50
2023-08-06T07:52:53.652Z,0.70
2023-08-06T07:55:22.202Z,0.30
2023-08-06T07:57:50.786Z,0.50
2023-08-06T08:00:20.246Z,0.50
2023-08-06T08:02:56.182Z,0.45
2023-08-06T08:05:24.775Z,0.68
2023-08-06T08:07:53.295Z,0.65
2023-08-06T08:10:21.861Z,0.60
2023-08-06T08:12:50.443Z,0.50
2023-08-06T08:15:19.340Z,0.50
2023-08-06T08:17:48.806Z,0.60
2023-08-06T08:20:20.115Z,0.35
2023-08-06T08:22:57.592Z,0.50
2023-08-06T08:25:35.314Z,0.50
2023-08-06T08:28:03.993Z,0.47
2023-08-06T08:30:32.631Z,0.40
2023-08-06T08:33:04.040Z,0.38
2023-08-06T08:35:33.990Z,0.50
2023-08-06T08:38:05.647Z,0.50
2023-08-06T08:40:45.670Z,0.57
2023-08-06T08:43:17.275Z,0.50
2023-08-06T08:45:50.829Z,0.52
2023-08-06T08:48:20.510Z,0.70
2023-08-06T08:50:52.366Z,0.50
2023-08-06T08:53:28.962Z,0.70
2023-08-06T08:55:58.402Z,0.50
2023-08-06T08:58:35.021Z,0.80
2023-08-06T09:01:03.666Z,0.40
2023-08-06T09:03:33.040Z,0.40
2023-08-06T09:06:05.179Z,0.63
2023-08-06T09:08:38.658Z,0.40
2023-08-06T09:11:11.255Z,0.90
2023-08-06T09:13:40.720Z,0.35
2023-08-06T09:16:09.371Z,0.40
2023-08-06T09:18:43.944Z,0.30
2023-08-06T09:21:18.333Z,0.45
2023-08-06T09:23:46.911Z,0.70
2023-08-06T09:26:23.304Z,0.20
2023-08-06T09:28:51.852Z,0.47
2023-08-06T09:31:20.453Z,0.60
2023-08-06T09:33:50.583Z,0.30
2023-08-06T09:36:20.518Z,0.50
2023-08-06T09:38:49.073Z,0.50
2023-08-06T09:41:30.241Z,0.80
2023-08-06T09:44:01.925Z,0.50
2023-08-06T09:46:34.263Z,0.20
2023-08-06T09:49:02.953Z,0.50
2023-08-06T09:51:33.259Z,0.50
2023-08-06T09:54:20.979Z,0.50
2023-08-06T09:56:55.819Z,0.50
2023-08-06T09:59:25.390Z,0.60
2023-08-06T10:01:56.239Z,0.60
2023-08-06T10:04:30.859Z,0.80
2023-08-06T10:07:08.663Z,0.80
2023-08-06T10:09:40.217Z,0.77
2023-08-06T10:12:09.543Z,0.55
2023-08-06T10:14:45.485Z,0.70
2023-08-06T10:17:14.856Z,0.73
2023-08-06T10:19:46.542Z,0.77
2023-08-06T10:22:18.395Z,0.90
2023-08-06T10:24:54.148Z,0.60
2023-08-06T10:27:24.387Z,0.70
2023-08-06T10:29:52.961Z,0.70
2023-08-06T10:32:23.179Z,0.80
2023-08-06T10:35:04.268Z,0.70
2023-08-06T10:37:39.364Z,0.90
2023-08-06T10:40:10.030Z,0.65
2023-08-06T10:42:44.693Z,0.70
2023-08-06T10:45:18.261Z,0.40
2023-08-06T10:47:47.362Z,0.30
2023-08-06T10:50:17.915Z,0.20
2023-08-06T10:52:48.571Z,0.20
2023-08-06T10:55:24.306Z,0.52
2023-08-06T10:57:57.119Z,0.30
2023-08-06T11:00:26.084Z,0.30
2023-08-06T11:03:00.913Z,0.22
2023-08-06T11:05:29.542Z,0.25
2023-08-06T11:08:05.106Z,0.10
2023-08-06T11:10:36.080Z,0.20
2023-08-06T11:13:08.799Z,0.10
2023-08-06T11:15:37.752Z,0.20
2023-08-06T11:18:12.685Z,0.30
2023-08-06T11:20:41.910Z,0.30
2023-08-06T11:23:14.896Z,0.22
2023-08-06T11:25:49.525Z,0.20
2023-08-06T11:28:18.329Z,0.20
2023-08-06T11:30:50.041Z,0.30
2023-08-06T11:33:23.811Z,0.20
2023-08-06T11:35:54.660Z,0.28
2023-08-06T11:38:26.682Z,0.20
2023-08-06T11:40:58.290Z,0.47
2023-08-06T11:43:26.920Z,0.93
2023-08-06T11:45:57.729Z,0.43
2023-08-06T11:48:26.337Z,0.47
2023-08-06T11:50:58.882Z,0.68
2023-08-06T11:53:31.285Z,0.45
2023-08-06T11:56:02.822Z,0.40
2023-08-06T11:58:32.323Z,0.60
2023-08-06T12:01:03.535Z,0.17
2023-08-06T12:03:41.330Z,0.10
2023-08-06T12:06:10.118Z,0.20
2023-08-06T12:08:43.557Z,0.20
2023-08-06T12:11:12.142Z,0.30
2023-08-06T12:13:43.644Z,0.20
2023-08-06T12:16:14.790Z,0.10
2023-08-06T12:18:46.431Z,0.10
2023-08-06T12:21:14.994Z,0.20
2023-08-06T12:23:45.221Z,0.20
2023-08-06T12:26:13.784Z,0.20
2023-08-06T12:28:42.293Z,0.20
2023-08-06T12:31:12.562Z,0.20
2023-08-06T12:33:43.980Z,0.20
2023-08-06T12:36:12.523Z,0.20
2023-08-06T12:38:41.096Z,0.40
2023-08-06T12:41:17.196Z,0.20
2023-08-06T12:43:45.789Z,0.40
2023-08-06T12:46:14.558Z,0.30
2023-08-06T12:48:55.038Z,0.30
2023-08-06T12:51:23.847Z,0.63
2023-08-06T12:53:52.416Z,0.60
2023-08-06T12:56:25.180Z,0.60
2023-08-06T12:58:59.702Z,0.57
2023-08-06T13:01:31.073Z,0.60
2023-08-06T13:04:19.421Z,0.55
2023-08-06T13:06:56.010Z,0.43
2023-08-06T13:09:24.729Z,0.40
2023-08-06T13:11:57.266Z,0.52
2023-08-06T13:14:25.991Z,0.50
2023-08-06T13:17:02.840Z,0.60
2023-08-06T13:19:31.365Z,0.68
2023-08-06T13:22:08.086Z,0.50
2023-08-06T13:24:45.776Z,0.57
2023-08-06T13:27:15.657Z,0.70
2023-08-06T13:29:44.223Z,0.50
2023-08-06T13:32:12.764Z,0.40
2023-08-06T13:34:44.391Z,0.68
2023-08-06T13:37:12.991Z,0.65
2023-08-06T13:39:41.705Z,0.50
2023-08-06T13:42:14.509Z,0.40
2023-08-06T13:44:43.062Z,0.50
2023-08-06T13:47:11.615Z,0.50
2023-08-06T13:49:43.193Z,0.60
2023-08-06T13:52:22.013Z,0.57
2023-08-06T13:54:51.380Z,0.80
2023-08-06T13:57:26.921Z,0.70
2023-08-06T14:00:01.369Z,0.60
2023-08-06T14:02:42.268Z,0.50
2023-08-06T14:05:11.099Z,0.63
2023-08-06T14:07:42.907Z,0.50
2023-08-06T14:10:11.788Z,0.40
2023-08-06T14:13:08.966Z,0.70
2023-08-06T14:15:47.979Z,0.50
2023-08-06T14:18:19.216Z,0.55
2023-08-06T14:20:47.871Z,0.50
2023-08-06T14:23:16.408Z,0.40
2023-08-06T14:25:44.993Z,0.50
2023-08-06T14:28:14.947Z,0.50
2023-08-06T14:30:43.445Z,0.55
2023-08-06T14:33:25.328Z,0.55
2023-08-06T14:35:58.779Z,0.30
2023-08-06T14:38:30.428Z,0.70
2023-08-06T14:41:13.815Z,0.50
2023-08-06T14:43:46.492Z,0.50
2023-08-06T14:46:15.218Z,0.50
2023-08-06T14:48:46.584Z,0.50
2023-08-06T14:51:15.167Z,0.40
2023-08-06T14:53:46.546Z,0.50
2023-08-06T14:56:15.084Z,0.40
2023-08-06T14:58:48.112Z,0.50
2023-08-06T15:01:16.672Z,0.40
2023-08-06T15:03:45.226Z,0.50
2023-08-06T15:06:13.759Z,0.60
2023-08-06T15:08:49.479Z,0.70
2023-08-06T15:11:18.210Z,0.43
2023-08-06T15:13:54.307Z,0.50
2023-08-06T15:16:25.710Z,0.40
2023-08-06T15:18:54.480Z,0.30
2023-08-06T15:21:26.184Z,0.30
2023-08-06T15:24:00.859Z,0.60
2023-08-06T15:26:31.580Z,0.30
2023-08-06T15:29:01.811Z,0.50
2023-08-06T15:31:39.051Z,0.35
2023-08-06T15:34:13.605Z,0.60
2023-08-06T15:36:42.126Z,0.60
2023-08-06T15:39:12.601Z,0.40
2023-08-06T15:41:43.625Z,0.50
2023-08-06T15:44:13.555Z,0.25
2023-08-06T15:46:44.976Z,0.50
2023-08-06T15:49:16.638Z,0.43
2023-08-06T15:51:45.154Z,0.30
2023-08-06T15:54:19.658Z,0.60
2023-08-06T15:56:47.214Z,0.30
2023-08-06T15:59:30.228Z,0.35
2023-08-06T16:02:14.321Z,0.40
2023-08-06T16:04:42.905Z,0.40
2023-08-06T16:07:11.496Z,0.30
2023-08-06T16:09:43.108Z,0.40
2023-08-06T16:12:11.684Z,0.47
2023-08-06T16:14:42.900Z,0.40
2023-08-06T16:17:11.462Z,0.32
2023-08-06T16:19:43.601Z,0.32
2023-08-06T16:22:12.229Z,0.33
2023-08-06T16:24:46.967Z,0.20
2023-08-06T16:27:15.524Z,0.20
2023-08-06T16:29:49.256Z,0.40
2023-08-06T16:32:17.940Z,0.30
2023-08-06T16:34:46.818Z,0.32
2023-08-06T16:37:15.422Z,0.30
2023-08-06T16:39:47.053Z,0.40
2023-08-06T16:42:15.582Z,0.50
2023-08-06T16:44:51.402Z,0.40
2023-08-06T16:47:29.151Z,0.40
2023-08-06T16:49:57.709Z,0.40
2023-08-06T16:52:26.269Z,0.30
2023-08-06T16:54:57.228Z,0.30
2023-08-06T16:57:28.829Z,0.40
2023-08-06T17:00:01.726Z,0.30
2023-08-06T17:02:30.299Z,0.30
2023-08-06T17:05:14.397Z,0.47
2023-08-06T17:07:44.962Z,0.43
2023-08-06T17:10:13.522Z,0.40
2023-08-06T17:12:45.772Z,0.40
2023-08-06T17:15:15.754Z,0.35
2023-08-06T17:17:44.543Z,0.30
2023-08-06T17:20:13.688Z,0.30
2023-08-06T17:22:45.383Z,0.30
2023-08-06T17:25:16.760Z,0.40
2023-08-06T17:27:45.573Z,0.28
2023-08-06T17:30:20.064Z,0.30
2023-08-06T17:32:48.665Z,0.43
2023-08-06T17:35:17.299Z,0.50
2023-08-06T17:37:45.867Z,0.50
2023-08-06T17:40:14.429Z,0.43
2023-08-06T17:42:45.756Z,0.40
2023-08-06T17:45:22.071Z,0.40
2023-08-06T17:47:53.792Z,0.40
2023-08-06T17:50:22.357Z,0.60
2023-08-06T17:52:51.490Z,0.40
2023-08-06T17:55:20.141Z,0.38
2023-08-06T17:57:48.653Z,0.38
2023-08-06T18:00:18.635Z,0.30
2023-08-06T18:02:47.182Z,0.40
2023-08-06T18:05:16.762Z,0.30
2023-08-06T18:07:46.645Z,0.55
2023-08-06T18:10:15.722Z,0.50
2023-08-06T18:12:47.383Z,0.30
2023-08-06T18:15:17.310Z,0.33
2023-08-06T18:17:46.501Z,0.30
2023-08-06T18:20:15.186Z,0.40
2023-08-06T18:22:43.786Z,0.35
2023-08-06T18:25:15.327Z,0.43
2023-08-06T18:27:47.916Z,0.22
2023-08-06T18:30:20.682Z,0.47
2023-08-06T18:32:49.973Z,0.50
2023-08-06T18:35:19.400Z,0.40
2023-08-06T18:37:57.357Z,0.80
2023-08-06T18:40:30.246Z,0.50
2023-08-06T18:43:05.116Z,0.60
2023-08-06T18:45:42.608Z,0.40
2023-08-06T18:48:17.368Z,0.60
2023-08-06T18:50:45.995Z,0.50
2023-08-06T18:53:14.554Z,0.70
2023-08-06T18:55:49.596Z,0.80
2023-08-06T18:58:24.957Z,1.30
2023-08-06T19:01:07.118Z,1.10
2023-08-06T19:03:35.808Z,1.13
2023-08-06T19:06:07.239Z,0.70
2023-08-06T19:08:41.891Z,0.82
2023-08-06T19:11:13.350Z,0.75
2023-08-06T19:13:41.909Z,0.70
2023-08-06T19:16:14.672Z,0.70
2023-08-06T19:18:46.018Z,0.80
2023-08-06T19:21:14.547Z,0.70
2023-08-06T19:23:43.075Z,0.95
2023-08-06T19:26:14.481Z,0.68
2023-08-06T19:28:43.021Z,0.63
2023-08-06T19:31:12.953Z,0.70
2023-08-06T19:33:44.363Z,0.55
2023-08-06T19:36:12.960Z,0.43
2023-08-06T19:38:41.555Z,0.63
2023-08-06T19:41:11.201Z,0.50
2023-08-06T19:43:43.307Z,0.57
2023-08-06T19:46:13.227Z,0.70
2023-08-06T19:48:44.551Z,1.00
2023-08-06T19:51:13.230Z,0.55
2023-08-06T19:53:44.935Z,0.40
2023-08-06T19:56:13.459Z,0.70
2023-08-06T19:58:45.195Z,0.60
2023-08-06T20:01:15.130Z,0.38
2023-08-06T20:03:44.622Z,0.50
2023-08-06T20:06:14.198Z,0.70
2023-08-06T20:08:42.787Z,0.40
2023-08-06T20:11:13.584Z,0.50
2023-08-06T20:13:42.148Z,0.40
2023-08-06T20:16:11.437Z,0.68
2023-08-06T20:18:44.075Z,0.85
2023-08-06T20:21:15.780Z,0.50
2023-08-06T20:23:44.630Z,1.00
2023-08-06T20:26:15.916Z,0.60
2023-08-06T20:28:44.479Z,0.80
2023-08-06T20:31:15.912Z,0.80
2023-08-06T20:33:48.111Z,0.82
2023-08-06T20:36:16.664Z,0.85
2023-08-06T20:38:47.122Z,0.60
2023-08-06T20:41:20.659Z,0.63
2023-08-06T20:43:52.031Z,0.60
2023-08-06T20:46:23.610Z,0.55
2023-08-06T20:48:53.562Z,0.50
2023-08-06T20:51:22.146Z,0.68
2023-08-06T20:53:50.688Z,0.55
2023-08-06T20:56:19.507Z,0.60
2023-08-06T20:58:48.107Z,0.75
2023-08-06T21:01:16.768Z,0.80
2023-08-06T21:03:45.326Z,0.70
2023-08-06T21:06:18.076Z,0.60
2023-08-06T21:08:52.906Z,0.70
2023-08-06T21:11:24.364Z,0.60
2023-08-06T21:13:52.932Z,0.73
2023-08-06T21:16:42.839Z,0.43
2023-08-06T21:19:11.594Z,0.60
2023-08-06T21:21:42.023Z,0.70
2023-08-06T21:24:10.563Z,0.57
2023-08-06T21:26:45.035Z,0.60
2023-08-06T21:29:13.555Z,0.50
2023-08-06T21:31:42.108Z,0.70
2023-08-06T21:34:16.954Z,0.40
2023-08-06T21:36:51.503Z,0.52
2023-08-06T21:39:20.293Z,0.50
2023-08-06T21:41:55.080Z,0.60
2023-08-06T21:44:23.767Z,0.50
2023-08-06T21:46:53.589Z,0.60
2023-08-06T21:49:25.341Z,0.80
2023-08-06T21:51:57.135Z,0.50
2023-08-06T21:54:26.016Z,0.80
2023-08-06T21:56:54.602Z,0.50
2023-08-06T21:59:23.158Z,0.55
2023-08-06T22:01:54.668Z,0.40
2023-08-06T22:04:32.257Z,0.80
2023-08-06T22:07:02.124Z,0.60
2023-08-06T22:09:33.960Z,0.68
2023-08-06T22:12:05.916Z,0.77
2023-08-06T22:14:34.446Z,0.95
2023-08-06T22:17:06.214Z,0.90
2023-08-06T22:19:35.050Z,1.00
2023-08-06T22:22:05.223Z,0.82
2023-08-06T22:24:39.713Z,1.05
2023-08-06T22:27:08.592Z,1.15
2023-08-06T22:29:39.866Z,1.13
2023-08-06T22:32:20.260Z,0.93
2023-08-06T22:34:51.557Z,1.35
2023-08-06T22:37:21.496Z,0.80
2023-08-06T22:39:50.200Z,0.90
2023-08-06T22:42:19.168Z,1.13
2023-08-06T22:44:47.773Z,1.00
2023-08-06T22:47:16.408Z,0.93
2023-08-06T22:49:45.601Z,0.80
2023-08-06T22:52:14.176Z,1.00
2023-08-06T22:54:51.658Z,0.90
2023-08-06T22:57:27.810Z,0.63
2023-08-06T22:59:56.926Z,1.02
2023-08-06T23:02:31.517Z,1.00
2023-08-06T23:05:00.146Z,0.90
2023-08-06T23:07:28.689Z,0.80
2023-08-06T23:09:58.667Z,0.75
2023-08-06T23:12:30.072Z,1.02
2023-08-06T23:15:00.705Z,1.00
2023-08-06T23:17:29.253Z,1.13
2023-08-06T23:20:04.771Z,0.75
2023-08-06T23:22:33.349Z,0.70
2023-08-06T23:25:03.274Z,0.60
2023-08-06T23:27:31.814Z,0.50
2023-08-06T23:30:00.396Z,0.70
2023-08-06T23:32:32.984Z,0.60
2023-08-06T23:35:07.700Z,0.60
2023-08-06T23:37:44.924Z,0.70
2023-08-06T23:40:15.108Z,0.60
2023-08-06T23:42:43.644Z,0.88
2023-08-06T23:45:12.664Z,0.70
2023-08-06T23:47:41.249Z,0.65
2023-08-06T23:50:10.500Z,0.68
2023-08-06T23:52:39.124Z,0.80
2023-08-06T23:55:15.331Z,0.88
2023-08-06T23:57:47.057Z,0.60
